Time;durP1;ratioP1;P1;durP2;ratioP2;P2;SDS_P1;SDS_P2;PMS_P1;PMS_P2;Temp;Humidity;BMP_temperature;BMP_pressure;BME280_temperature;BME280_humidity;BME280_pressure;Samples;Min_cycle;Max_cycle;Signal;HPM_P1;HPM_P2
2021/07/18 00:00:21;;;;;;;9.27;5.03;;;;;;;25.33;42.56;94276.53;5030820;28;20185;-71
2021/07/18 00:02:48;;;;;;;9.97;5.00;;;;;;;25.18;42.54;94259.47;5031121;28;20201;-70
2021/07/18 00:05:16;;;;;;;9.43;5.07;;;;;;;25.18;42.92;94258.72;5030876;28;20228;-72
2021/07/18 00:07:43;;;;;;;11.70;4.87;;;;;;;25.01;43.36;94263.47;5030175;28;20201;-71
2021/07/18 00:10:11;;;;;;;4.93;4.43;;;;;;;24.88;43.15;94234.53;5018556;28;20570;-71
2021/07/18 00:12:39;;;;;;;8.70;5.07;;;;;;;24.94;43.27;94266.00;5017663;28;20201;-73
2021/07/18 00:15:09;;;;;;;10.10;5.20;;;;;;;25.02;43.09;94261.53;5017388;28;20185;-73
2021/07/18 00:17:53;;;;;;;8.60;5.07;;;;;;;24.96;42.95;94269.09;5016246;28;20217;-72
2021/07/18 00:20:20;;;;;;;7.50;4.90;;;;;;;25.00;43.21;94255.75;5018310;28;20189;-72
2021/07/18 00:22:47;;;;;;;8.67;4.33;;;;;;;24.93;42.92;94261.78;5031294;28;20233;-71
2021/07/18 00:25:14;;;;;;;7.10;4.60;;;;;;;25.00;42.85;94256.53;5029190;28;20559;-71
2021/07/18 00:27:41;;;;;;;8.03;4.23;;;;;;;24.88;43.42;94261.31;5020131;28;20208;-71
2021/07/18 00:30:09;;;;;;;8.33;4.63;;;;;;;24.85;43.09;94267.41;5028725;28;20625;-69
2021/07/18 00:32:36;;;;;;;6.90;4.40;;;;;;;24.71;43.17;94257.25;5020206;28;20206;-71
2021/07/18 00:35:05;;;;;;;6.23;4.47;;;;;;;24.80;43.43;94268.47;5027470;28;20563;-70
2021/07/18 00:37:32;;;;;;;8.43;4.83;;;;;;;24.81;43.48;94264.69;5030570;28;20198;-71
2021/07/18 00:39:59;;;;;;;8.37;4.47;;;;;;;24.64;44.02;94259.78;5020464;28;20194;-71
2021/07/18 00:42:26;;;;;;;8.23;4.57;;;;;;;24.69;43.74;94258.72;5026591;28;20241;-71
2021/07/18 00:44:53;;;;;;;7.17;4.80;;;;;;;24.57;43.62;94262.34;5030933;28;20251;-71
2021/07/18 00:47:22;;;;;;;6.97;4.80;;;;;;;24.66;43.96;94252.16;5029674;28;20623;-71
2021/07/18 00:49:50;;;;;;;10.00;4.30;;;;;;;24.56;43.79;94250.06;5030951;28;20621;-70
2021/07/18 00:52:18;;;;;;;7.87;4.23;;;;;;;24.40;44.11;94252.09;5016825;28;20540;-73
2021/07/18 00:54:47;;;;;;;5.70;4.37;;;;;;;24.43;44.03;94261.34;5030148;28;20205;-71
2021/07/18 00:57:14;;;;;;;7.53;4.50;;;;;;;24.53;44.24;94266.09;5030672;28;20288;-71
2021/07/18 00:59:41;;;;;;;6.27;4.07;;;;;;;24.61;43.85;94260.50;5025422;28;20221;-70
2021/07/18 01:02:08;;;;;;;8.73;4.50;;;;;;;24.07;44.62;94270.63;5022194;28;20211;-70
2021/07/18 01:04:35;;;;;;;12.43;4.57;;;;;;;24.49;44.19;94255.31;5029905;28;20201;-72
2021/07/18 01:07:02;;;;;;;8.53;4.73;;;;;;;24.35;44.85;94259.66;5030437;28;20538;-71
2021/07/18 01:09:31;;;;;;;7.73;4.63;;;;;;;24.45;44.36;94254.47;5030069;28;20251;-71
2021/07/18 01:11:59;;;;;;;6.70;4.30;;;;;;;24.44;44.28;94242.22;5030894;28;20212;-70
2021/07/18 01:14:27;;;;;;;10.67;4.87;;;;;;;24.30;44.52;94247.34;5029231;28;20561;-73
2021/07/18 01:16:54;;;;;;;5.13;4.33;;;;;;;24.20;44.48;94247.16;5017315;28;20220;-71
2021/07/18 01:19:23;;;;;;;7.40;4.47;;;;;;;24.13;44.95;94247.81;5029865;28;20197;-72
2021/07/18 01:22:01;;;;;;;7.53;5.00;;;;;;;24.29;44.63;94250.41;5030942;28;20211;-70
2021/07/18 01:24:30;;;;;;;6.70;4.60;;;;;;;24.26;44.60;94259.13;5030628;28;20575;-71
2021/07/18 01:26:59;;;;;;;9.70;4.30;;;;;;;24.15;44.81;94250.91;5030458;28;20678;-70
2021/07/18 01:29:27;;;;;;;7.27;4.67;;;;;;;24.11;45.18;94258.09;5030806;28;20226;-70
2021/07/18 01:31:55;;;;;;;6.90;4.70;;;;;;;23.92;45.11;94236.69;5030574;28;20192;-71
2021/07/18 01:34:25;;;;;;;6.73;4.90;;;;;;;24.19;45.24;94257.09;5028822;28;20185;-71
2021/07/18 01:36:52;;;;;;;9.43;5.17;;;;;;;24.18;45.39;94255.53;5032397;28;20224;-72
2021/07/18 01:39:20;;;;;;;11.60;4.33;;;;;;;24.00;45.60;94249.06;5030351;28;20193;-72
2021/07/18 01:41:50;;;;;;;8.47;5.20;;;;;;;24.07;45.65;94260.72;5029890;28;20235;-72
2021/07/18 01:44:17;;;;;;;12.87;4.93;;;;;;;23.96;45.89;94248.22;5029687;28;20232;-72
2021/07/18 01:46:45;;;;;;;10.63;4.80;;;;;;;23.90;45.68;94249.66;5029619;28;20189;-72
2021/07/18 01:49:12;;;;;;;8.97;4.83;;;;;;;23.78;46.24;94257.81;5029645;28;20717;-73
2021/07/18 01:51:40;;;;;;;10.90;4.90;;;;;;;23.74;46.47;94257.75;5029649;28;20201;-72
2021/07/18 01:54:08;;;;;;;7.73;4.60;;;;;;;23.77;46.01;94250.94;5030255;28;20576;-71
2021/07/18 01:56:35;;;;;;;6.47;4.50;;;;;;;23.70;46.45;94256.16;5029731;28;20193;-70
2021/07/18 01:59:02;;;;;;;8.37;4.80;;;;;;;23.73;46.08;94252.75;5030471;28;20197;-71
2021/07/18 02:01:32;;;;;;;6.27;4.33;;;;;;;23.57;46.23;94236.03;5023601;28;20277;-72
2021/07/18 02:04:00;;;;;;;9.43;4.70;;;;;;;23.70;46.41;94258.81;5023180;28;20284;-71
2021/07/18 02:06:28;;;;;;;10.83;4.70;;;;;;;23.64;46.67;94250.31;5015341;28;20201;-70
2021/07/18 02:08:58;;;;;;;9.93;5.07;;;;;;;23.71;46.36;94247.00;5030195;28;20237;-71
2021/07/18 02:11:25;;;;;;;12.73;5.47;;;;;;;23.67;46.46;94251.47;5029327;28;20208;-71
2021/07/18 02:13:55;;;;;;;7.97;4.67;;;;;;;23.47;47.00;94249.94;5030399;28;20189;-71
2021/07/18 02:16:23;;;;;;;9.00;4.80;;;;;;;23.55;46.76;94252.41;5013164;28;20293;-72
2021/07/18 02:18:50;;;;;;;9.10;5.00;;;;;;;23.47;47.26;94255.28;5019466;28;20675;-71
2021/07/18 02:21:20;;;;;;;8.47;4.80;;;;;;;23.41;47.40;94254.78;5029548;28;20197;-71
2021/07/18 02:23:50;;;;;;;11.90;4.80;;;;;;;23.22;47.68;94256.63;5022984;28;20202;-71
2021/07/18 02:26:17;;;;;;;6.93;4.53;;;;;;;23.31;47.51;94259.91;5010843;28;20754;-70
2021/07/18 02:28:44;;;;;;;7.70;4.80;;;;;;;23.23;47.62;94258.22;5033530;28;20633;-70
2021/07/18 02:31:11;;;;;;;10.33;5.10;;;;;;;23.36;47.94;94251.63;5033024;28;20208;-72
2021/07/18 02:33:38;;;;;;;8.63;5.23;;;;;;;23.38;47.35;94254.72;5028443;28;20197;-71
2021/07/18 02:36:06;;;;;;;9.03;5.60;;;;;;;23.68;46.58;94247.69;5019054;28;20603;-72
2021/07/18 02:38:33;;;;;;;11.73;5.83;;;;;;;23.83;46.32;94252.97;5033502;28;20375;-72
2021/07/18 02:41:00;;;;;;;7.70;5.53;;;;;;;23.83;46.36;94254.88;5014144;28;20194;-72
2021/07/18 02:43:27;;;;;;;11.10;5.93;;;;;;;23.64;46.99;94252.19;5024144;28;20279;-72
2021/07/18 02:45:54;;;;;;;11.73;5.70;;;;;;;23.79;46.67;94260.16;5029482;28;20205;-70
2021/07/18 02:48:21;;;;;;;7.70;5.10;;;;;;;23.76;46.29;94254.72;5013641;28;20194;-74
2021/07/18 02:50:48;;;;;;;11.93;5.40;;;;;;;23.78;46.55;94263.94;5028689;28;20276;-73
2021/07/18 02:53:15;;;;;;;13.37;6.07;;;;;;;23.73;46.47;94255.44;5033739;28;20572;-70
2021/07/18 02:55:43;;;;;;;11.70;5.77;;;;;;;23.69;47.18;94273.31;5018516;28;20198;-71
2021/07/18 02:58:10;;;;;;;9.13;5.47;;;;;;;23.46;47.73;94272.47;5033075;28;20212;-72
2021/07/18 03:00:36;;;;;;;7.90;6.27;;;;;;;23.25;47.90;94272.00;5031999;28;20193;-71
2021/07/18 03:03:05;;;;;;;9.87;6.70;;;;;;;23.26;47.89;94273.53;5027651;28;20684;-71
2021/07/18 03:05:32;;;;;;;10.33;7.17;;;;;;;23.35;47.83;94276.81;5023555;28;20197;-72
2021/07/18 03:07:59;;;;;;;9.43;6.40;;;;;;;23.38;47.33;94281.44;5032492;28;20215;-73
2021/07/18 03:10:26;;;;;;;11.37;6.73;;;;;;;23.42;47.40;94280.41;5031792;28;20217;-72
2021/07/18 03:12:53;;;;;;;9.90;6.03;;;;;;;23.25;47.96;94277.34;5029188;28;20201;-69
2021/07/18 03:15:20;;;;;;;8.93;6.20;;;;;;;23.18;48.13;94277.94;5019966;28;20204;-73
2021/07/18 03:17:47;;;;;;;8.43;5.37;;;;;;;23.17;47.72;94272.97;5032125;28;20209;-69
2021/07/18 03:20:16;;;;;;;9.47;5.80;;;;;;;23.17;48.19;94286.31;5032561;28;20189;-73
2021/07/18 03:22:44;;;;;;;9.40;5.73;;;;;;;23.16;48.05;94276.78;5018444;28;20208;-72
2021/07/18 03:25:13;;;;;;;12.90;6.10;;;;;;;23.18;47.83;94288.63;5016718;28;20225;-72
2021/07/18 03:27:40;;;;;;;10.40;5.60;;;;;;;23.23;47.99;94284.94;5021044;28;20197;-73
2021/07/18 03:30:10;;;;;;;7.60;5.70;;;;;;;23.14;48.11;94282.44;5029599;28;20193;-74
2021/07/18 03:32:37;;;;;;;8.40;6.00;;;;;;;23.10;48.25;94282.34;5032110;28;20283;-71
2021/07/18 03:35:06;;;;;;;17.37;5.87;;;;;;;23.04;48.55;94288.34;5026330;28;20193;-71
2021/07/18 03:37:35;;;;;;;11.43;6.33;;;;;;;23.01;48.49;94287.13;5031172;28;20213;-71
2021/07/18 03:40:08;;;;;;;11.47;6.07;;;;;;;23.01;48.44;94279.09;5031094;28;20190;-70
2021/07/18 03:42:36;;;;;;;12.13;6.43;;;;;;;23.07;48.65;94287.63;5032040;28;20316;-72
2021/07/18 03:45:05;;;;;;;13.50;6.87;;;;;;;23.03;48.78;94292.91;5031616;28;20224;-72
2021/07/18 03:47:32;;;;;;;10.90;7.17;;;;;;;23.09;48.89;94293.41;5032071;28;20193;-72
2021/07/18 03:50:02;;;;;;;11.53;7.07;;;;;;;23.20;48.43;94293.63;5031374;28;20276;-71
2021/07/18 03:52:30;;;;;;;9.80;6.40;;;;;;;23.24;48.12;94291.81;5030925;28;20652;-70
2021/07/18 03:54:57;;;;;;;9.73;6.40;;;;;;;23.14;48.29;94287.78;5031326;28;20304;-70
2021/07/18 03:57:24;;;;;;;8.07;5.30;;;;;;;23.32;48.34;94298.91;5016712;28;20718;-71
2021/07/18 03:59:51;;;;;;;10.70;6.13;;;;;;;23.06;48.28;94270.81;5017345;28;20197;-71
2021/07/18 04:02:18;;;;;;;8.47;5.20;;;;;;;23.23;48.56;94291.03;5019210;28;20642;-70
2021/07/18 04:04:46;;;;;;;6.93;5.17;;;;;;;23.01;48.92;94284.44;5029856;28;20199;-71
2021/07/18 04:07:13;;;;;;;7.17;5.30;;;;;;;22.95;49.01;94291.19;5031274;28;20711;-71
2021/07/18 04:09:40;;;;;;;8.67;5.50;;;;;;;23.02;49.16;94291.34;5030860;28;20294;-72
2021/07/18 04:12:07;;;;;;;9.13;5.67;;;;;;;23.19;48.79;94300.13;5031718;28;20301;-72
2021/07/18 04:14:34;;;;;;;12.10;5.63;;;;;;;22.94;49.03;94299.53;5030345;28;20189;-71
2021/07/18 04:17:03;;;;;;;8.87;5.77;;;;;;;22.73;49.39;94310.53;5031427;28;20186;-71
2021/07/18 04:19:29;;;;;;;11.47;6.37;;;;;;;22.83;49.75;94304.63;5016984;28;20311;-70
2021/07/18 04:21:56;;;;;;;11.40;5.67;;;;;;;22.94;49.13;94311.00;5017650;28;20197;-73
2021/07/18 04:24:24;;;;;;;10.57;6.10;;;;;;;23.23;49.08;94309.00;5030669;28;20209;-71
2021/07/18 04:26:51;;;;;;;9.10;6.17;;;;;;;23.00;49.61;94306.19;5017196;28;20268;-73
2021/07/18 04:29:18;;;;;;;7.87;5.77;;;;;;;23.46;48.67;94315.25;5031021;28;20201;-73
2021/07/18 04:31:45;;;;;;;9.57;5.33;;;;;;;23.51;48.72;94323.00;5030878;28;20193;-71
2021/07/18 04:34:12;;;;;;;12.40;5.63;;;;;;;23.61;48.87;94325.13;5031075;28;20231;-72
2021/07/18 04:36:39;;;;;;;7.10;5.27;;;;;;;23.70;48.49;94323.03;5030833;28;20205;-74
2021/07/18 04:39:06;;;;;;;9.90;6.57;;;;;;;23.79;48.26;94323.59;5030046;28;20227;-72
2021/07/18 04:41:34;;;;;;;11.80;6.80;;;;;;;23.68;48.50;94322.59;5031689;28;20237;-72
2021/07/18 04:44:02;;;;;;;12.67;7.30;;;;;;;23.67;48.60;94329.84;5034526;28;20205;-70
2021/07/18 04:46:29;;;;;;;17.60;8.53;;;;;;;23.55;49.13;94326.53;5033654;28;20227;-71
2021/07/18 04:48:56;;;;;;;16.43;8.43;;;;;;;23.51;48.86;94313.06;5040008;28;20204;-72
2021/07/18 04:51:23;;;;;;;9.33;6.60;;;;;;;23.69;48.49;94332.16;5041635;28;20284;-72
2021/07/18 04:53:50;;;;;;;13.20;6.43;;;;;;;23.68;48.89;94333.31;5029620;28;20257;-72
2021/07/18 04:56:17;;;;;;;9.87;5.80;;;;;;;23.73;49.02;94325.00;5043119;28;20198;-71
2021/07/18 04:58:44;;;;;;;8.50;6.43;;;;;;;23.51;49.90;94339.03;5027486;28;20266;-73
2021/07/18 05:01:11;;;;;;;9.03;5.10;;;;;;;23.65;49.25;94329.41;5027757;28;20569;-72
2021/07/18 05:03:38;;;;;;;9.83;5.97;;;;;;;23.72;49.18;94318.84;5030466;28;20204;-72
2021/07/18 05:06:06;;;;;;;8.93;5.77;;;;;;;23.60;49.04;94326.25;5016310;28;20194;-73
2021/07/18 05:08:33;;;;;;;7.27;5.77;;;;;;;23.80;48.65;94325.13;5030768;28;20201;-73
2021/07/18 05:11:01;;;;;;;9.77;5.80;;;;;;;24.02;48.64;94333.28;5029385;28;20236;-70
2021/07/18 05:13:29;;;;;;;8.70;5.47;;;;;;;23.73;49.67;94330.34;5029402;28;20233;-72
2021/07/18 05:15:56;;;;;;;10.73;6.13;;;;;;;23.80;50.56;94331.25;5029822;28;20197;-73
2021/07/18 05:18:23;;;;;;;8.00;5.60;;;;;;;23.91;49.66;94332.25;5029723;28;20244;-73
2021/07/18 05:20:50;;;;;;;8.47;6.33;;;;;;;24.03;49.42;94336.72;5021386;28;20200;-70
2021/07/18 05:23:17;;;;;;;13.47;6.27;;;;;;;23.99;48.66;94330.50;5021765;28;20197;-72
2021/07/18 05:25:44;;;;;;;9.67;6.30;;;;;;;23.98;49.89;94336.97;5022200;28;20633;-67
2021/07/18 05:28:11;;;;;;;63.53;52.27;;;;;;;24.29;49.77;94344.09;5030286;28;20197;-65
2021/07/18 05:30:38;;;;;;;12.23;10.10;;;;;;;24.15;49.45;94344.59;5028251;28;20296;-66
2021/07/18 05:33:05;;;;;;;12.30;6.83;;;;;;;24.30;49.09;94340.28;5029752;28;20185;-69
2021/07/18 05:35:32;;;;;;;32.83;25.90;;;;;;;24.26;49.29;94340.22;5025879;28;20201;-70
2021/07/18 05:38:00;;;;;;;43.90;38.77;;;;;;;24.50;49.04;94345.25;5030671;28;20288;-74
2021/07/18 05:40:27;;;;;;;26.10;23.47;;;;;;;24.14;49.55;94340.38;5029628;28;20672;-70
2021/07/18 05:42:55;;;;;;;6.20;5.67;;;;;;;24.20;49.86;94322.88;5029799;28;20602;-72
2021/07/18 05:45:22;;;;;;;10.63;5.70;;;;;;;24.47;49.15;94337.94;5029347;28;20216;-72
2021/07/18 05:47:48;;;;;;;8.47;6.57;;;;;;;24.42;49.46;94327.50;5029710;28;20189;-70
2021/07/18 05:50:17;;;;;;;43.53;38.67;;;;;;;24.74;49.58;94336.91;5029091;28;20197;-70
2021/07/18 05:52:43;;;;;;;18.63;16.50;;;;;;;24.70;49.68;94325.38;5029263;28;20186;-69
2021/07/18 05:55:11;;;;;;;10.93;6.67;;;;;;;24.92;49.58;94327.25;5028945;28;20189;-69
2021/07/18 05:57:39;;;;;;;11.30;6.60;;;;;;;24.85;49.22;94332.47;5025680;28;20204;-69
2021/07/18 06:00:08;;;;;;;17.47;6.73;;;;;;;25.05;49.65;94323.22;5016667;28;20216;-69
2021/07/18 06:02:39;;;;;;;11.37;5.73;;;;;;;24.99;48.71;94327.38;5028776;28;20209;-69
2021/07/18 06:05:08;;;;;;;10.27;6.40;;;;;;;24.93;49.29;94320.75;5033140;28;20193;-70
2021/07/18 06:07:36;;;;;;;9.10;6.27;;;;;;;24.97;49.50;94329.63;5018900;28;20200;-71
2021/07/18 06:10:07;;;;;;;13.00;6.33;;;;;;;25.08;49.05;94319.84;5031916;28;20220;-72
2021/07/18 06:12:35;;;;;;;20.00;12.60;;;;;;;25.26;49.26;94320.09;5033504;28;20197;-70
2021/07/18 06:15:05;;;;;;;23.30;19.57;;;;;;;25.34;48.16;94315.63;5029093;28;20284;-69
2021/07/18 06:17:32;;;;;;;19.47;10.03;;;;;;;25.54;48.03;94314.41;5033467;28;20190;-72
2021/07/18 06:19:59;;;;;;;11.10;7.30;;;;;;;25.64;47.43;94311.06;5029559;28;20189;-73
2021/07/18 06:22:26;;;;;;;14.73;6.47;;;;;;;25.55;47.39;94308.66;5032110;28;20238;-70
2021/07/18 06:24:53;;;;;;;9.07;6.80;;;;;;;25.57;48.40;94305.63;5029418;28;20264;-71
2021/07/18 06:27:20;;;;;;;8.23;6.77;;;;;;;25.63;47.61;94296.91;5032851;28;20287;-74
2021/07/18 06:29:47;;;;;;;10.27;6.17;;;;;;;25.82;46.82;94306.72;5031490;28;20635;-70
2021/07/18 06:32:13;;;;;;;9.00;6.33;;;;;;;25.82;46.71;94306.72;5031260;28;20566;-69
2021/07/18 06:34:40;;;;;;;13.00;6.53;;;;;;;25.84;47.25;94304.44;5025737;28;20289;-70
2021/07/18 06:37:07;;;;;;;12.63;7.00;;;;;;;25.91;47.03;94293.78;5032686;28;20259;-72
2021/07/18 06:39:34;;;;;;;16.27;7.17;;;;;;;25.94;46.66;94290.38;5031938;28;20221;-70
2021/07/18 06:42:02;;;;;;;13.73;6.63;;;;;;;26.26;46.25;94291.50;5019622;28;20236;-74
2021/07/18 06:44:30;;;;;;;10.27;6.73;;;;;;;26.35;46.35;94291.97;5030480;28;20197;-72
2021/07/18 06:46:57;;;;;;;12.47;7.10;;;;;;;26.44;46.26;94287.09;5032640;28;20205;-69
2021/07/18 06:49:24;;;;;;;11.87;6.37;;;;;;;26.39;43.73;94290.13;5031943;28;20202;-70
2021/07/18 06:51:51;;;;;;;11.50;6.40;;;;;;;26.50;43.63;94284.84;5022088;28;20205;-71
2021/07/18 06:54:19;;;;;;;17.70;7.67;;;;;;;26.73;44.31;94272.03;5029028;28;20189;-71
2021/07/18 06:56:46;;;;;;;9.50;6.37;;;;;;;26.76;42.34;94273.97;5032651;28;20212;-69
2021/07/18 06:59:13;;;;;;;19.70;12.43;;;;;;;26.76;42.25;94277.44;5032097;28;20320;-70
2021/07/18 07:01:40;;;;;;;45.17;40.33;;;;;;;27.03;42.82;94270.72;5031631;28;20706;-72
2021/07/18 07:04:07;;;;;;;12.40;7.97;;;;;;;27.02;42.14;94279.91;5018925;28;20196;-72
2021/07/18 07:06:35;;;;;;;10.50;7.30;;;;;;;27.17;41.67;94277.34;5025950;28;20209;-70
2021/07/18 07:09:02;;;;;;;14.33;8.37;;;;;;;27.23;41.92;94262.38;5012434;28;20297;-67
2021/07/18 07:11:29;;;;;;;15.33;8.27;;;;;;;27.19;42.99;94277.75;5025449;28;20606;-71
2021/07/18 07:13:56;;;;;;;10.20;7.63;;;;;;;27.25;42.37;94284.31;5023213;28;20201;-70
2021/07/18 07:16:23;;;;;;;21.47;6.87;;;;;;;27.16;41.94;94278.47;5034256;28;20274;-66
2021/07/18 07:18:50;;;;;;;12.20;7.83;;;;;;;27.41;42.32;94274.81;5032904;28;20248;-71
2021/07/18 07:21:17;;;;;;;8.70;7.63;;;;;;;27.42;42.17;94270.22;5033580;28;20186;-72
2021/07/18 07:23:45;;;;;;;29.47;25.10;;;;;;;26.90;41.96;94261.41;5034360;28;20695;-72
2021/07/18 07:26:12;;;;;;;13.93;11.97;;;;;;;27.36;42.72;94279.78;5020940;28;20202;-71
2021/07/18 07:28:39;;;;;;;14.17;8.30;;;;;;;27.41;41.91;94263.31;5020002;28;20204;-74
2021/07/18 07:31:06;;;;;;;17.87;8.67;;;;;;;27.49;42.03;94256.81;5031006;28;20220;-70
2021/07/18 07:33:33;;;;;;;8.87;7.10;;;;;;;27.77;41.14;94265.03;5031304;28;20198;-72
2021/07/18 07:36:02;;;;;;;16.03;7.60;;;;;;;27.69;41.26;94264.22;5030951;28;20279;-75
2021/07/18 07:38:30;;;;;;;11.83;7.03;;;;;;;27.84;41.32;94265.03;5031338;28;20332;-74
2021/07/18 07:40:57;;;;;;;12.50;7.47;;;;;;;27.81;41.46;94255.00;5029994;28;20663;-71
2021/07/18 07:43:24;;;;;;;11.07;7.93;;;;;;;27.92;41.35;94271.97;5031712;28;20212;-75
2021/07/18 07:45:52;;;;;;;13.13;7.30;;;;;;;27.79;41.37;94254.66;5030863;28;20542;-72
2021/07/18 07:48:20;;;;;;;12.87;6.87;;;;;;;27.97;43.04;94264.34;5031379;28;20722;-66
2021/07/18 07:50:47;;;;;;;13.17;7.60;;;;;;;28.17;41.54;94251.31;5028326;28;20232;-71
2021/07/18 07:53:15;;;;;;;12.97;8.43;;;;;;;28.04;41.29;94258.22;5009254;28;20282;-72
2021/07/18 07:55:43;;;;;;;12.50;7.97;;;;;;;28.02;41.61;94255.13;5027221;28;20212;-72
2021/07/18 07:58:10;;;;;;;11.73;7.37;;;;;;;28.05;40.93;94242.84;5028162;28;20216;-76
2021/07/18 08:00:41;;;;;;;13.37;8.33;;;;;;;28.19;41.89;94249.03;5030174;28;20193;-71
2021/07/18 08:03:11;;;;;;;13.57;7.53;;;;;;;28.17;41.46;94255.94;5030571;28;20200;-74
2021/07/18 08:05:39;;;;;;;17.37;8.77;;;;;;;28.36;41.84;94237.50;5017190;28;20237;-69
2021/07/18 08:08:06;;;;;;;33.83;30.57;;;;;;;28.37;41.21;94247.13;5027532;28;20193;-72
2021/07/18 08:10:34;;;;;;;44.50;40.17;;;;;;;28.46;41.37;94246.75;5030688;28;20193;-71
2021/07/18 08:13:02;;;;;;;12.13;8.23;;;;;;;28.23;40.85;94241.69;5030408;28;20566;-73
2021/07/18 08:15:29;;;;;;;9.23;7.27;;;;;;;28.39;40.64;94233.28;5030900;28;20220;-76
2021/07/18 08:17:56;;;;;;;14.50;7.43;;;;;;;28.58;41.56;94231.00;5030878;28;20264;-71
2021/07/18 08:20:26;;;;;;;14.97;6.97;;;;;;;28.51;41.25;94227.50;5030699;28;20225;-77
2021/07/18 08:22:55;;;;;;;19.57;7.20;;;;;;;28.54;40.71;94230.22;5029433;28;20189;-74
2021/07/18 08:25:25;;;;;;;10.90;6.23;;;;;;;28.60;40.25;94226.00;5029114;28;20231;-78
2021/07/18 08:27:52;;;;;;;9.67;6.20;;;;;;;28.84;39.29;94216.34;5029699;28;20197;-73
2021/07/18 08:30:21;;;;;;;11.53;5.23;;;;;;;28.65;37.55;94217.50;5027284;28;20196;-72
2021/07/18 08:32:50;;;;;;;20.00;6.97;;;;;;;28.91;37.61;94217.13;5028872;28;20186;-67
2021/07/18 08:35:18;;;;;;;12.67;5.67;;;;;;;28.88;36.68;94212.50;5028040;28;20684;-69
2021/07/18 08:37:45;;;;;;;8.27;5.57;;;;;;;28.95;37.06;94203.63;5027972;28;20212;-67
2021/07/18 08:40:13;;;;;;;19.00;6.37;;;;;;;29.19;37.95;94210.16;5028301;28;20267;-72
2021/07/18 08:42:41;;;;;;;9.43;5.43;;;;;;;29.15;36.33;94191.28;5025945;28;20239;-75
2021/07/18 08:45:10;;;;;;;16.60;5.63;;;;;;;29.48;36.12;94201.59;5028933;28;20217;-70
2021/07/18 08:47:37;;;;;;;14.70;7.27;;;;;;;29.49;36.01;94199.69;5026694;28;20193;-77
2021/07/18 08:50:05;;;;;;;13.97;6.30;;;;;;;29.70;36.29;94200.41;5029025;28;20221;-71
2021/07/18 08:52:33;;;;;;;22.30;14.53;;;;;;;29.92;35.11;94206.47;5028256;28;20193;-72
2021/07/18 08:55:06;;;;;;;25.90;17.23;;;;;;;30.03;35.76;94204.47;5028530;28;20209;-75
2021/07/18 08:57:34;;;;;;;31.13;22.70;;;;;;;29.74;34.91;94205.78;5028077;28;20277;-73
2021/07/18 09:00:03;;;;;;;49.33;44.00;;;;;;;29.98;35.56;94198.72;5028217;28;20286;-70
2021/07/18 09:02:30;;;;;;;9.47;5.40;;;;;;;29.98;34.84;94193.31;5028068;28;20604;-76
2021/07/18 09:04:57;;;;;;;13.47;8.30;;;;;;;29.95;34.30;94200.25;5026374;28;20204;-69
2021/07/18 09:07:26;;;;;;;33.90;27.50;;;;;;;29.91;34.49;94192.16;5024204;28;20220;-72
2021/07/18 09:10:07;;;;;;;36.20;27.47;;;;;;;30.09;35.18;94205.56;5026697;28;20193;-72
2021/07/18 09:12:34;;;;;;;16.77;11.27;;;;;;;30.26;34.81;94193.16;5026402;28;20319;-68
2021/07/18 09:15:04;;;;;;;17.73;9.40;;;;;;;30.33;34.88;94199.28;5027337;28;20197;-69
2021/07/18 09:17:36;;;;;;;10.40;7.87;;;;;;;29.89;34.23;94185.63;5027981;28;20189;-72
2021/07/18 09:20:17;;;;;;;12.80;7.60;;;;;;;30.23;34.92;94196.63;5026129;28;20217;-76
2021/07/18 09:22:44;;;;;;;22.80;16.93;;;;;;;30.40;35.46;94193.06;5027814;28;20192;-72
2021/07/18 09:25:12;;;;;;;26.10;20.63;;;;;;;30.29;33.38;94186.97;5028892;28;20185;-74
2021/07/18 09:27:39;;;;;;;10.13;7.23;;;;;;;30.49;34.53;94185.28;5029137;28;20285;-71
2021/07/18 09:30:10;;;;;;;11.20;6.43;;;;;;;30.39;32.62;94186.09;5025249;28;20217;-71
2021/07/18 09:32:44;;;;;;;15.63;5.73;;;;;;;30.62;32.35;94189.78;5029454;28;20629;-69
2021/07/18 09:35:19;;;;;;;9.90;4.67;;;;;;;30.16;32.19;94183.94;5025244;28;20193;-71
2021/07/18 09:37:48;;;;;;;12.70;5.77;;;;;;;30.48;33.65;94184.50;5032920;28;20254;-70
2021/07/18 09:40:16;;;;;;;8.93;4.70;;;;;;;30.63;32.91;94185.91;5033285;28;20216;-70
2021/07/18 09:42:59;;;;;;;10.17;5.30;;;;;;;30.43;34.17;94179.50;5033413;28;20225;-70
2021/07/18 09:45:32;;;;;;;11.43;4.70;;;;;;;30.69;32.85;94184.31;5033911;28;21903;-65
2021/07/18 09:48:05;;;;;;;16.13;5.10;;;;;;;30.86;32.63;94183.41;5028721;28;20672;-67
2021/07/18 09:50:32;;;;;;;10.67;4.63;;;;;;;30.93;32.78;94181.81;5027756;28;20713;-69
2021/07/18 09:53:22;;;;;;;9.17;7.13;;;;;;;31.07;31.75;94181.69;5032945;28;20194;-70
2021/07/18 09:56:20;;;;;;;13.13;7.27;;;;;;;31.01;31.19;94172.44;5019275;28;20198;-70
2021/07/18 09:58:55;;;;;;;10.30;4.00;;;;;;;31.00;30.59;94173.63;5025112;28;20259;-72
2021/07/18 10:01:23;;;;;;;10.03;6.97;;;;;;;30.88;31.32;94162.16;5020038;28;20694;-72
2021/07/18 10:03:58;;;;;;;14.00;10.27;;;;;;;31.05;31.09;94154.25;5034368;28;20193;-74
2021/07/18 10:06:26;;;;;;;30.37;27.07;;;;;;;31.21;30.82;94162.56;5035729;28;20216;-72
2021/07/18 10:09:04;;;;;;;12.70;6.27;;;;;;;31.35;29.62;94176.75;5037184;28;20192;-75
2021/07/18 10:11:31;;;;;;;11.67;7.37;;;;;;;31.13;29.37;94163.84;5032853;28;20193;-73
2021/07/18 10:13:59;;;;;;;17.03;9.00;;;;;;;31.43;28.95;94166.63;5027996;28;20551;-74
2021/07/18 10:16:29;;;;;;;10.83;4.73;;;;;;;31.66;28.83;94169.44;5023851;28;20193;-72
2021/07/18 10:18:57;;;;;;;9.93;4.53;;;;;;;31.49;28.77;94162.28;5036786;28;20216;-73
2021/07/18 10:21:27;;;;;;;8.20;3.70;;;;;;;31.21;27.18;94143.63;5020110;28;20218;-71
2021/07/18 10:23:56;;;;;;;11.30;4.00;;;;;;;31.30;27.97;94157.44;5024879;28;20200;-69
2021/07/18 10:26:25;;;;;;;14.60;4.87;;;;;;;31.65;28.25;94167.91;5028129;28;20201;-74
2021/07/18 10:28:53;;;;;;;9.67;3.93;;;;;;;31.71;26.94;94160.88;5031976;28;20201;-71
2021/07/18 10:31:44;;;;;;;7.60;4.60;;;;;;;31.64;27.61;94182.63;5031474;28;20197;-69
2021/07/18 10:34:12;;;;;;;15.40;4.97;;;;;;;31.95;28.12;94170.63;5032860;28;20293;-74
2021/07/18 10:36:39;;;;;;;48.10;36.93;;;;;;;31.96;27.89;94165.97;5032494;28;20193;-74
2021/07/18 10:39:40;;;;;;;9.40;5.57;;;;;;;31.73;26.59;94166.66;5032716;28;20221;-72
2021/07/18 10:42:16;;;;;;;15.07;4.67;;;;;;;31.77;26.38;94159.22;5032368;28;20792;-71
2021/07/18 10:44:48;;;;;;;16.40;3.90;;;;;;;31.83;26.49;94163.00;5032236;28;20197;-74
2021/07/18 10:47:16;;;;;;;12.43;4.40;;;;;;;32.26;28.02;94158.53;5031848;28;20224;-71
2021/07/18 10:49:59;;;;;;;9.87;4.00;;;;;;;32.44;26.09;94152.91;5028985;28;20547;-68
2021/07/18 10:52:33;;;;;;;8.73;3.90;;;;;;;32.30;25.76;94156.56;5020468;28;20236;-70
2021/07/18 10:55:19;;;;;;;7.40;4.70;;;;;;;32.61;26.49;94152.59;5031366;28;20288;-70
2021/07/18 10:57:51;;;;;;;7.00;3.67;;;;;;;32.36;25.54;94157.63;5030295;28;20200;-70
2021/07/18 11:00:23;;;;;;;17.60;9.87;;;;;;;32.61;26.05;94158.03;5031751;28;20249;-72
2021/07/18 11:03:05;;;;;;;13.80;4.60;;;;;;;32.88;26.33;94154.47;5029427;28;20541;-71
2021/07/18 11:05:44;;;;;;;8.87;4.03;;;;;;;33.03;26.19;94151.13;5031128;28;20259;-71
2021/07/18 11:08:13;;;;;;;7.93;4.33;;;;;;;33.14;26.33;94150.94;5030633;28;20204;-69
2021/07/18 11:10:55;;;;;;;13.10;8.43;;;;;;;33.43;26.32;94130.19;5031106;28;20291;-72
2021/07/18 11:13:23;;;;;;;10.30;4.87;;;;;;;33.24;24.74;94133.66;5030524;28;20213;-72
2021/07/18 11:15:50;;;;;;;20.33;15.47;;;;;;;33.46;25.51;94132.09;5031758;28;20197;-73
2021/07/18 11:18:32;;;;;;;54.73;46.70;;;;;;;33.76;25.93;94142.72;5024452;28;20353;-72
2021/07/18 11:21:46;;;;;;;14.37;6.67;;;;;;;33.46;24.89;94132.09;5031190;28;20197;-74
2021/07/18 11:24:13;;;;;;;10.93;5.00;;;;;;;33.24;25.01;94128.25;5029145;28;20612;-69
2021/07/18 11:26:47;;;;;;;13.77;8.13;;;;;;;33.04;26.02;94135.59;5030683;28;20564;-71
2021/07/18 11:29:31;;;;;;;20.90;13.83;;;;;;;32.92;26.75;94136.19;5028807;28;20639;-71
2021/07/18 11:32:18;;;;;;;17.67;11.10;;;;;;;33.21;26.68;94113.53;5031484;28;20193;-72
2021/07/18 11:34:46;;;;;;;187.43;166.13;;;;;;;33.41;27.37;94121.69;5031285;28;20213;-75